Time;durP1;ratioP1;P1;durP2;ratioP2;P2;SDS_P1;SDS_P2;PMS_P1;PMS_P2;Temp;Humidity;BMP_temperature;BMP_pressure;BME280_temperature;BME280_humidity;BME280_pressure;Samples;Min_cycle;Max_cycle;Signal;HPM_P1;HPM_P2
2024/01/23 00:01:13;;;;;;;14.73;4.00;;;;;;;;;;4983607;28;21201;-85
2024/01/23 00:03:39;;;;;;;13.93;4.07;;;;;;;;;;4976879;28;20271;-85
2024/01/23 00:06:04;;;;;;;12.67;3.90;;;;;;;;;;4978362;28;20217;-83
2024/01/23 00:08:30;;;;;;;13.00;4.43;;;;;;;;;;4973106;28;20224;-83
2024/01/23 00:10:58;;;;;;;14.27;4.93;;;;;;;;;;4982812;28;20228;-85
2024/01/23 00:13:30;;;;;;;16.23;4.60;;;;;;;;;;4994878;28;20221;-84
2024/01/23 00:15:56;;;;;;;13.30;4.03;;;;;;;;;;4982104;28;20228;-84
2024/01/23 00:18:22;;;;;;;16.57;4.33;;;;;;;;;;4977401;28;20224;-85
2024/01/23 00:20:50;;;;;;;13.63;4.40;;;;;;;;;;4990172;28;20274;-84
2024/01/23 00:23:18;;;;;;;13.70;3.80;;;;;;;;;;4982953;28;20224;-85
2024/01/23 00:25:43;;;;;;;17.20;4.47;;;;;;;;;;5000309;28;20224;-85
2024/01/23 00:28:15;;;;;;;13.67;3.77;;;;;;;;;;4982563;28;20244;-87
2024/01/23 00:30:40;;;;;;;14.47;4.53;;;;;;;;;;4998967;28;20362;-86
2024/01/23 00:33:11;;;;;;;12.47;4.00;;;;;;;;;;4983638;28;20257;-86
2024/01/23 00:35:40;;;;;;;13.73;3.60;;;;;;;;;;4995743;28;20216;-84
2024/01/23 00:38:07;;;;;;;19.73;4.60;;;;;;;;;;4957112;28;20245;-84
2024/01/23 00:40:35;;;;;;;15.43;4.00;;;;;;;;;;4998462;28;20228;-84
2024/01/23 00:43:01;;;;;;;14.73;4.10;;;;;;;;;;4969025;28;20224;-83
2024/01/23 00:45:29;;;;;;;15.90;3.83;;;;;;;;;;4999186;28;20221;-85
2024/01/23 00:47:55;;;;;;;11.00;3.60;;;;;;;;;;4977929;28;20712;-86
2024/01/23 00:50:20;;;;;;;15.20;4.37;;;;;;;;;;4981779;28;20702;-85
2024/01/23 00:52:48;;;;;;;15.33;4.00;;;;;;;;;;4978513;28;20255;-87
2024/01/23 00:55:17;;;;;;;14.20;3.87;;;;;;;;;;4981652;28;20217;-85
2024/01/23 00:57:42;;;;;;;16.37;4.10;;;;;;;;;;4965733;28;20220;-83
2024/01/23 01:00:13;;;;;;;14.53;3.47;;;;;;;;;;5004744;28;20228;-85
2024/01/23 01:02:43;;;;;;;18.47;4.13;;;;;;;;;;4992832;28;20227;-84
2024/01/23 01:05:11;;;;;;;10.53;3.60;;;;;;;;;;4988958;28;20220;-84
2024/01/23 01:07:36;;;;;;;13.67;3.43;;;;;;;;;;4998572;28;20219;-84
2024/01/23 01:10:04;;;;;;;11.13;3.23;;;;;;;;;;4998312;28;20221;-85
2024/01/23 01:12:33;;;;;;;12.40;3.17;;;;;;;;;;4966039;28;20330;-84
2024/01/23 01:15:04;;;;;;;9.07;3.47;;;;;;;;;;5001695;28;20274;-85
2024/01/23 01:17:32;;;;;;;12.37;3.57;;;;;;;;;;4983509;28;20298;-86
2024/01/23 01:19:58;;;;;;;10.87;3.47;;;;;;;;;;4995534;28;20659;-85
2024/01/23 01:22:26;;;;;;;14.13;4.10;;;;;;;;;;4985265;28;20224;-83
2024/01/23 01:24:55;;;;;;;10.80;3.07;;;;;;;;;;4984389;28;20217;-86
2024/01/23 01:27:23;;;;;;;12.87;3.90;;;;;;;;;;5001142;28;20288;-85
2024/01/23 01:29:49;;;;;;;12.23;3.30;;;;;;;;;;5007377;28;20300;-85
2024/01/23 01:32:17;;;;;;;11.30;3.67;;;;;;;;;;4996786;28;20274;-85
2024/01/23 01:34:45;;;;;;;11.03;3.67;;;;;;;;;;4993815;28;20228;-83
2024/01/23 01:37:10;;;;;;;6.80;2.50;;;;;;;;;;5000753;28;20225;-85
2024/01/23 01:39:38;;;;;;;5.80;1.77;;;;;;;;;;4999977;28;20223;-85
2024/01/23 01:42:04;;;;;;;5.40;1.97;;;;;;;;;;4979406;28;20275;-84
2024/01/23 01:44:32;;;;;;;6.60;2.13;;;;;;;;;;4984636;28;20691;-85
2024/01/23 01:46:58;;;;;;;8.43;2.07;;;;;;;;;;4980658;28;20304;-86
2024/01/23 01:49:26;;;;;;;4.93;1.87;;;;;;;;;;4979395;28;20367;-84
2024/01/23 01:51:54;;;;;;;4.57;1.50;;;;;;;;;;4980642;28;20220;-85
2024/01/23 01:54:22;;;;;;;5.93;1.87;;;;;;;;;;4979329;28;20221;-83
2024/01/23 01:56:50;;;;;;;4.83;1.70;;;;;;;;;;4979679;28;20221;-83
2024/01/23 01:59:18;;;;;;;3.87;1.50;;;;;;;;;;4980597;28;20243;-84
2024/01/23 02:01:44;;;;;;;4.10;1.57;;;;;;;;;;4984138;28;20657;-83
2024/01/23 02:04:09;;;;;;;6.10;1.63;;;;;;;;;;4964268;28;20221;-83
2024/01/23 02:06:37;;;;;;;3.80;1.30;;;;;;;;;;4987776;28;20228;-86
2024/01/23 02:09:05;;;;;;;6.20;1.70;;;;;;;;;;4980739;28;20229;-86
2024/01/23 02:11:30;;;;;;;3.87;1.30;;;;;;;;;;4982745;28;20281;-86
2024/01/23 02:14:00;;;;;;;5.37;1.63;;;;;;;;;;4982350;28;20614;-86
2024/01/23 02:16:25;;;;;;;5.67;1.80;;;;;;;;;;4959036;28;20233;-84
2024/01/23 02:18:51;;;;;;;4.97;1.53;;;;;;;;;;4957956;28;20216;-86
2024/01/23 02:21:21;;;;;;;6.63;2.13;;;;;;;;;;4968337;28;20229;-86
2024/01/23 02:23:46;;;;;;;3.47;1.50;;;;;;;;;;4991064;28;20236;-86
2024/01/23 02:26:17;;;;;;;7.43;2.27;;;;;;;;;;4972803;28;20218;-84
2024/01/23 02:28:42;;;;;;;9.20;2.13;;;;;;;;;;4994463;28;20224;-86
2024/01/23 02:31:13;;;;;;;6.20;2.20;;;;;;;;;;4980344;28;20225;-86
2024/01/23 02:33:43;;;;;;;8.13;2.53;;;;;;;;;;4992033;28;20236;-83
2024/01/23 02:36:08;;;;;;;8.47;2.57;;;;;;;;;;4990812;28;21221;-83
2024/01/23 02:38:34;;;;;;;11.07;3.10;;;;;;;;;;4998061;28;20297;-82
2024/01/23 02:41:03;;;;;;;10.30;2.53;;;;;;;;;;5011560;28;20232;-86
2024/01/23 02:43:28;;;;;;;8.47;2.43;;;;;;;;;;4999279;28;20619;-86
2024/01/23 02:45:54;;;;;;;12.13;2.93;;;;;;;;;;4984224;28;20216;-85
2024/01/23 02:48:19;;;;;;;14.97;3.30;;;;;;;;;;4987285;28;20600;-85
2024/01/23 02:50:45;;;;;;;10.50;3.00;;;;;;;;;;4986413;28;20601;-86
2024/01/23 02:53:10;;;;;;;17.30;3.93;;;;;;;;;;4977995;28;20256;-86
2024/01/23 02:55:36;;;;;;;11.07;3.07;;;;;;;;;;5004327;28;20232;-85
2024/01/23 02:58:04;;;;;;;14.93;3.40;;;;;;;;;;4982297;28;20690;-86
2024/01/23 03:00:32;;;;;;;14.13;3.53;;;;;;;;;;4987163;28;20275;-84
2024/01/23 03:03:00;;;;;;;13.90;3.73;;;;;;;;;;4989280;28;20204;-86
2024/01/23 03:05:28;;;;;;;13.83;3.63;;;;;;;;;;4992149;28;20243;-84
2024/01/23 03:07:58;;;;;;;10.90;3.30;;;;;;;;;;4981653;28;20223;-86
2024/01/23 03:10:26;;;;;;;12.90;3.50;;;;;;;;;;4991829;28;20224;-85
2024/01/23 03:12:54;;;;;;;18.83;3.80;;;;;;;;;;4983792;28;20225;-84
2024/01/23 03:15:20;;;;;;;14.07;3.97;;;;;;;;;;4979620;28;20265;-87
2024/01/23 03:17:50;;;;;;;17.37;3.80;;;;;;;;;;4992879;28;20420;-85
2024/01/23 03:20:15;;;;;;;15.07;3.37;;;;;;;;;;4974469;28;20298;-84
2024/01/23 03:22:41;;;;;;;14.70;3.20;;;;;;;;;;5003689;28;20681;-86
2024/01/23 03:25:07;;;;;;;11.10;3.77;;;;;;;;;;4991277;28;20272;-85
2024/01/23 03:27:35;;;;;;;9.57;3.23;;;;;;;;;;4985331;28;20220;-86
2024/01/23 03:30:03;;;;;;;11.83;3.40;;;;;;;;;;4962869;28;20877;-83
2024/01/23 03:32:28;;;;;;;11.43;3.13;;;;;;;;;;4994353;28;20259;-87
2024/01/23 03:34:54;;;;;;;15.33;3.27;;;;;;;;;;4983605;28;20679;-87
2024/01/23 03:37:20;;;;;;;9.60;2.93;;;;;;;;;;4981880;28;20216;-84
2024/01/23 03:39:45;;;;;;;12.33;3.37;;;;;;;;;;5005914;28;21711;-85
2024/01/23 03:42:11;;;;;;;12.20;3.10;;;;;;;;;;4979162;28;20216;-87
2024/01/23 03:44:36;;;;;;;12.70;3.50;;;;;;;;;;4997243;28;20227;-85
2024/01/23 03:47:02;;;;;;;8.80;2.83;;;;;;;;;;4979206;28;20212;-84
2024/01/23 03:49:28;;;;;;;15.33;3.40;;;;;;;;;;4999150;28;20599;-84
2024/01/23 03:51:55;;;;;;;8.70;2.90;;;;;;;;;;4983522;28;20230;-85
2024/01/23 03:54:23;;;;;;;9.17;2.67;;;;;;;;;;4971105;28;20217;-86
2024/01/23 03:56:49;;;;;;;14.27;3.57;;;;;;;;;;5003952;28;20212;-84
2024/01/23 04:03:05;;;;;;;8.10;2.90;;;;;;;;;;5019558;28;20227;-84
2024/01/23 04:05:32;;;;;;;8.20;3.33;;;;;;;;;;4970181;28;20228;-84
2024/01/23 04:08:00;;;;;;;12.90;2.87;;;;;;;;;;5000697;28;20213;-84
2024/01/23 04:10:26;;;;;;;7.20;2.70;;;;;;;;;;4971494;28;20234;-84
2024/01/23 04:12:55;;;;;;;9.40;2.77;;;;;;;;;;4988871;28;20219;-84
2024/01/23 04:15:21;;;;;;;11.50;3.23;;;;;;;;;;5001741;28;20224;-84
2024/01/23 04:17:49;;;;;;;9.73;3.30;;;;;;;;;;5003584;28;20236;-85
2024/01/23 04:20:17;;;;;;;11.93;2.80;;;;;;;;;;4984835;28;20223;-86
2024/01/23 04:22:42;;;;;;;9.40;2.77;;;;;;;;;;5006992;28;20212;-87
2024/01/23 04:25:12;;;;;;;8.87;2.87;;;;;;;;;;4976640;28;20211;-85
2024/01/23 04:27:37;;;;;;;11.53;3.50;;;;;;;;;;4986936;28;20220;-86
2024/01/23 04:30:03;;;;;;;8.20;2.67;;;;;;;;;;4976512;28;20216;-84
2024/01/23 04:32:29;;;;;;;9.50;2.90;;;;;;;;;;5009476;28;20299;-85
2024/01/23 04:34:54;;;;;;;9.20;2.70;;;;;;;;;;4985738;28;20212;-86
2024/01/23 04:37:22;;;;;;;8.60;2.67;;;;;;;;;;4979210;28;20228;-85
2024/01/23 04:39:48;;;;;;;12.53;3.50;;;;;;;;;;4966664;28;20269;-86
2024/01/23 04:42:14;;;;;;;9.67;3.07;;;;;;;;;;4982586;28;20694;-85
2024/01/23 04:44:41;;;;;;;6.40;2.63;;;;;;;;;;4990516;28;20852;-86
2024/01/23 04:47:09;;;;;;;13.40;3.50;;;;;;;;;;4980871;28;20216;-86
2024/01/23 04:49:35;;;;;;;9.53;2.83;;;;;;;;;;4991246;28;20227;-88
2024/01/23 04:52:03;;;;;;;9.93;2.97;;;;;;;;;;4966333;28;20322;-78
2024/01/23 04:54:28;;;;;;;8.43;3.00;;;;;;;;;;4989688;28;20235;-76
2024/01/23 04:56:54;;;;;;;15.77;3.30;;;;;;;;;;5001942;28;20223;-78
2024/01/23 04:59:19;;;;;;;11.37;3.53;;;;;;;;;;4993585;28;20216;-79
2024/01/23 05:01:45;;;;;;;8.40;3.37;;;;;;;;;;4993114;28;20228;-77
2024/01/23 05:04:10;;;;;;;12.40;3.17;;;;;;;;;;4990900;28;20220;-77
2024/01/23 05:06:36;;;;;;;8.77;3.33;;;;;;;;;;5006816;28;20704;-80
2024/01/23 05:09:02;;;;;;;9.03;3.37;;;;;;;;;;4989513;28;20220;-79
2024/01/23 05:11:28;;;;;;;11.03;3.73;;;;;;;;;;5031651;28;20246;-76
2024/01/23 05:13:54;;;;;;;9.90;3.47;;;;;;;;;;5029446;28;20231;-77
2024/01/23 05:16:22;;;;;;;14.53;3.30;;;;;;;;;;4994258;28;20307;-77
2024/01/23 05:18:48;;;;;;;12.13;3.90;;;;;;;;;;4977570;28;20224;-79
2024/01/23 05:21:16;;;;;;;10.60;3.23;;;;;;;;;;5002202;28;20234;-77
2024/01/23 05:23:43;;;;;;;13.07;3.50;;;;;;;;;;4974590;28;20225;-77
2024/01/23 05:26:09;;;;;;;13.03;3.43;;;;;;;;;;5001367;28;20708;-78
2024/01/23 05:28:35;;;;;;;11.67;3.60;;;;;;;;;;4996606;28;20219;-78
2024/01/23 05:31:00;;;;;;;12.50;4.13;;;;;;;;;;5024406;28;20220;-77
2024/01/23 05:33:26;;;;;;;11.80;3.50;;;;;;;;;;4981170;28;20220;-77
2024/01/23 05:35:56;;;;;;;11.97;3.00;;;;;;;;;;5003795;28;20293;-77
2024/01/23 05:38:21;;;;;;;15.73;3.70;;;;;;;;;;5018222;28;20259;-77
2024/01/23 05:40:47;;;;;;;12.77;3.97;;;;;;;;;;5001767;28;20229;-77
2024/01/23 05:43:12;;;;;;;12.10;3.37;;;;;;;;;;4976303;28;20220;-77
2024/01/23 05:45:40;;;;;;;8.67;3.33;;;;;;;;;;4991028;28;20323;-77
2024/01/23 05:48:06;;;;;;;16.13;3.73;;;;;;;;;;5002841;28;20234;-78
2024/01/23 05:50:34;;;;;;;10.43;3.13;;;;;;;;;;4993692;28;20235;-77
2024/01/23 05:53:00;;;;;;;12.70;3.63;;;;;;;;;;4991122;28;20564;-78
2024/01/23 05:55:25;;;;;;;15.27;4.17;;;;;;;;;;4971601;28;20228;-78
2024/01/23 05:57:51;;;;;;;11.73;3.13;;;;;;;;;;4992795;28;20274;-76
2024/01/23 06:00:19;;;;;;;16.43;3.97;;;;;;;;;;4976345;28;20227;-77
2024/01/23 06:02:49;;;;;;;11.87;3.60;;;;;;;;;;4985904;28;20231;-78
2024/01/23 06:05:16;;;;;;;11.77;3.90;;;;;;;;;;4993338;28;20220;-79
2024/01/23 06:07:49;;;;;;;20.43;4.30;;;;;;;;;;4976580;28;20231;-76
2024/01/23 06:10:16;;;;;;;14.83;3.83;;;;;;;;;;4999353;28;20934;-78
2024/01/23 06:12:41;;;;;;;12.83;4.30;;;;;;;;;;4991093;28;20225;-74
2024/01/23 06:15:08;;;;;;;16.27;4.03;;;;;;;;;;4983579;28;20949;-77
2024/01/23 06:17:36;;;;;;;15.70;4.13;;;;;;;;;;4988931;28;20232;-79
2024/01/23 06:20:05;;;;;;;16.53;4.50;;;;;;;;;;5004723;28;20224;-75
2024/01/23 06:22:31;;;;;;;12.03;4.00;;;;;;;;;;4973908;28;20246;-77
2024/01/23 06:25:07;;;;;;;14.73;4.43;;;;;;;;;;4965253;28;20981;-77
2024/01/23 06:27:32;;;;;;;17.53;4.60;;;;;;;;;;4975439;28;20332;-77
2024/01/23 06:30:00;;;;;;;18.07;4.30;;;;;;;;;;5001425;28;20712;-77
2024/01/23 06:32:28;;;;;;;14.93;3.87;;;;;;;;;;4996738;28;20228;-78
2024/01/23 06:34:54;;;;;;;12.03;3.87;;;;;;;;;;4996736;28;20236;-80
2024/01/23 06:37:20;;;;;;;14.07;4.40;;;;;;;;;;4997832;28;20226;-78
2024/01/23 06:39:47;;;;;;;17.80;4.20;;;;;;;;;;4975637;28;20228;-81
2024/01/23 06:42:14;;;;;;;18.43;4.40;;;;;;;;;;4976618;28;20208;-79
2024/01/23 06:44:40;;;;;;;12.77;4.30;;;;;;;;;;5003776;28;20230;-79
2024/01/23 06:47:05;;;;;;;13.33;3.93;;;;;;;;;;5004399;28;20271;-78
2024/01/23 06:49:31;;;;;;;17.57;3.77;;;;;;;;;;4990700;28;20251;-78
2024/01/23 06:51:59;;;;;;;17.73;4.50;;;;;;;;;;4989635;28;20221;-78
2024/01/23 06:54:25;;;;;;;15.80;4.27;;;;;;;;;;4987831;28;20246;-78
2024/01/23 06:56:53;;;;;;;14.50;3.67;;;;;;;;;;5001522;28;20224;-80
2024/01/23 06:59:18;;;;;;;20.83;4.60;;;;;;;;;;5012485;28;20229;-78
2024/01/23 07:01:44;;;;;;;17.67;4.40;;;;;;;;;;4992660;28;20224;-78
2024/01/23 07:04:09;;;;;;;16.47;4.03;;;;;;;;;;4990742;28;20224;-78
2024/01/23 07:06:35;;;;;;;13.87;4.00;;;;;;;;;;4995814;28;20283;-77
2024/01/23 07:09:00;;;;;;;16.17;5.00;;;;;;;;;;5003489;28;20224;-78
2024/01/23 07:11:28;;;;;;;15.37;4.57;;;;;;;;;;4994511;28;20283;-78
2024/01/23 07:13:54;;;;;;;13.60;4.17;;;;;;;;;;5021689;28;20224;-77
2024/01/23 07:16:19;;;;;;;17.20;4.67;;;;;;;;;;5012943;28;20599;-79
2024/01/23 07:18:47;;;;;;;15.60;4.63;;;;;;;;;;4988177;28;20236;-76
2024/01/23 07:21:18;;;;;;;15.73;4.47;;;;;;;;;;5003479;28;20286;-77
2024/01/23 07:23:47;;;;;;;19.43;3.83;;;;;;;;;;5015152;28;20231;-79
2024/01/23 07:26:14;;;;;;;18.67;4.50;;;;;;;;;;5013240;28;20227;-78
2024/01/23 07:28:42;;;;;;;16.67;4.30;;;;;;;;;;4987625;28;20236;-77
2024/01/23 07:31:11;;;;;;;12.97;4.10;;;;;;;;;;5024119;28;20307;-80
2024/01/23 07:33:37;;;;;;;14.63;4.73;;;;;;;;;;5008079;28;20231;-79
2024/01/23 07:36:02;;;;;;;14.07;5.07;;;;;;;;;;5006165;28;20732;-77
2024/01/23 07:38:30;;;;;;;10.60;3.73;;;;;;;;;;4994013;28;20277;-79
2024/01/23 07:40:58;;;;;;;12.97;4.37;;;;;;;;;;5003654;28;20290;-78
2024/01/23 07:43:26;;;;;;;15.53;5.00;;;;;;;;;;5018524;28;20236;-76
2024/01/23 07:45:55;;;;;;;16.90;4.50;;;;;;;;;;5006657;28;20740;-76
2024/01/23 07:48:23;;;;;;;19.80;5.50;;;;;;;;;;5001159;28;20220;-80
2024/01/23 07:50:51;;;;;;;16.27;4.20;;;;;;;;;;4979997;28;20228;-78
2024/01/23 07:53:19;;;;;;;15.63;5.37;;;;;;;;;;5003959;28;20236;-78
2024/01/23 07:55:45;;;;;;;15.43;5.10;;;;;;;;;;4996094;28;20236;-78
2024/01/23 07:58:12;;;;;;;16.93;4.73;;;;;;;;;;5014264;28;20216;-78
2024/01/23 08:00:40;;;;;;;15.37;5.00;;;;;;;;;;4989261;28;20312;-77
2024/01/23 08:03:06;;;;;;;17.77;4.83;;;;;;;;;;4991181;28;20277;-79
2024/01/23 08:05:31;;;;;;;20.27;5.43;;;;;;;;;;4998288;28;20232;-78
2024/01/23 08:07:57;;;;;;;12.73;4.37;;;;;;;;;;4999046;28;20224;-78
2024/01/23 08:10:24;;;;;;;17.70;5.47;;;;;;;;;;4995480;28;20232;-78
2024/01/23 08:12:50;;;;;;;23.23;5.60;;;;;;;;;;5024479;28;20267;-77
2024/01/23 08:15:19;;;;;;;24.13;5.67;;;;;;;;;;4983444;28;20278;-78
2024/01/23 08:17:46;;;;;;;22.40;5.80;;;;;;;;;;5005289;28;20897;-79
2024/01/23 08:20:13;;;;;;;44.63;27.37;;;;;;;;;;4970101;28;20228;-78
2024/01/23 08:22:39;;;;;;;32.83;19.87;;;;;;;;;;4990263;28;20267;-79
2024/01/23 08:25:08;;;;;;;28.20;5.93;;;;;;;;;;5024855;28;20224;-77
2024/01/23 08:27:33;;;;;;;13.93;4.60;;;;;;;;;;5022000;28;20677;-77
2024/01/23 08:29:59;;;;;;;15.03;4.97;;;;;;;;;;5004941;28;20331;-78
2024/01/23 08:32:25;;;;;;;16.37;4.70;;;;;;;;;;4976452;28;20331;-77
2024/01/23 08:34:53;;;;;;;23.87;5.43;;;;;;;;;;4990827;28;20790;-78
2024/01/23 08:37:18;;;;;;;18.53;5.20;;;;;;;;;;5017574;28;20227;-77
2024/01/23 08:39:46;;;;;;;13.83;4.87;;;;;;;;;;5005445;28;20228;-78
2024/01/23 08:42:14;;;;;;;17.57;5.23;;;;;;;;;;4986684;28;20213;-78
2024/01/23 08:44:47;;;;;;;16.00;5.27;;;;;;;;;;5013297;28;20224;-80
2024/01/23 08:47:13;;;;;;;16.03;4.43;;;;;;;;;;4991348;28;20232;-77
2024/01/23 08:49:38;;;;;;;22.43;5.83;;;;;;;;;;5006096;28;20733;-77
2024/01/23 08:52:07;;;;;;;16.33;5.60;;;;;;;;;;4996058;28;20240;-79
2024/01/23 08:54:34;;;;;;;21.50;5.70;;;;;;;;;;4990730;28;20224;-79
2024/01/23 08:57:00;;;;;;;19.73;5.17;;;;;;;;;;5024325;28;20231;-78
2024/01/23 08:59:30;;;;;;;22.73;5.47;;;;;;;;;;4990100;28;20221;-78
2024/01/23 09:01:56;;;;;;;16.23;5.03;;;;;;;;;;4992495;28;20231;-78
2024/01/23 09:04:21;;;;;;;20.97;5.87;;;;;;;;;;4995724;28;20220;-77
2024/01/23 09:06:50;;;;;;;19.70;5.93;;;;;;;;;;5022742;28;20705;-80
2024/01/23 09:09:15;;;;;;;12.23;4.93;;;;;;;;;;4996733;28;20608;-78
2024/01/23 09:11:43;;;;;;;21.33;5.90;;;;;;;;;;5006499;28;20220;-76
2024/01/23 09:14:08;;;;;;;21.43;5.97;;;;;;;;;;4975775;28;20539;-80
2024/01/23 09:16:34;;;;;;;19.33;5.50;;;;;;;;;;5003262;28;20335;-78
2024/01/23 09:18:59;;;;;;;26.07;6.30;;;;;;;;;;4990047;28;20224;-78
2024/01/23 09:21:25;;;;;;;16.60;5.30;;;;;;;;;;4996772;28;20224;-78
2024/01/23 09:23:51;;;;;;;23.13;7.33;;;;;;;;;;4989462;28;20232;-79
2024/01/23 09:26:19;;;;;;;20.10;6.10;;;;;;;;;;5007498;28;20228;-79
2024/01/23 09:28:47;;;;;;;23.30;5.80;;;;;;;;;;4991339;28;20537;-78
2024/01/23 09:31:14;;;;;;;25.93;6.73;;;;;;;;;;4982229;28;20231;-78
2024/01/23 09:33:41;;;;;;;21.10;6.17;;;;;;;;;;5021345;28;20249;-78
2024/01/23 09:36:09;;;;;;;18.33;5.47;;;;;;;;;;4985005;28;20592;-79
2024/01/23 09:38:34;;;;;;;23.13;6.73;;;;;;;;;;5016331;28;20224;-78
2024/01/23 09:41:00;;;;;;;11.53;4.80;;;;;;;;;;5010821;28;20611;-76
2024/01/23 09:43:25;;;;;;;17.10;5.93;;;;;;;;;;4971939;28;20223;-77
2024/01/23 09:45:51;;;;;;;18.33;5.90;;;;;;;;;;4983525;28;20229;-77
2024/01/23 09:48:17;;;;;;;25.53;5.97;;;;;;;;;;4988842;28;21038;-76
2024/01/23 09:50:43;;;;;;;16.77;5.27;;;;;;;;;;4984496;28;20288;-79
2024/01/23 09:53:11;;;;;;;21.17;5.13;;;;;;;;;;4994325;28;20232;-78
2024/01/23 09:55:37;;;;;;;20.27;5.70;;;;;;;;;;4990493;28;20227;-79
2024/01/23 09:58:03;;;;;;;14.20;4.73;;;;;;;;;;4980008;28;20256;-78
2024/01/23 10:00:31;;;;;;;19.17;5.70;;;;;;;;;;5003323;28;20224;-80
2024/01/23 10:02:56;;;;;;;24.97;6.23;;;;;;;;;;5003552;28;20230;-78
2024/01/23 10:05:25;;;;;;;21.03;6.47;;;;;;;;;;4991655;28;20270;-78
2024/01/23 10:07:50;;;;;;;20.13;6.87;;;;;;;;;;5008807;28;20231;-78
2024/01/23 10:10:17;;;;;;;20.97;5.50;;;;;;;;;;4998318;28;20228;-77
2024/01/23 10:12:45;;;;;;;18.27;6.13;;;;;;;;;;4972481;28;20323;-78
2024/01/23 10:15:16;;;;;;;22.10;7.40;;;;;;;;;;4995469;28;20224;-78
2024/01/23 10:17:44;;;;;;;22.13;6.80;;;;;;;;;;5012099;28;20216;-78
2024/01/23 10:20:10;;;;;;;21.07;6.07;;;;;;;;;;4979062;28;20224;-78
2024/01/23 10:22:35;;;;;;;22.67;5.60;;;;;;;;;;4998521;28;20960;-78
2024/01/23 10:25:20;;;;;;;19.23;7.17;;;;;;;;;;4982979;28;20678;-77
2024/01/23 10:27:53;;;;;;;20.60;5.37;;;;;;;;;;5007236;28;20216;-77
2024/01/23 10:30:18;;;;;;;17.20;5.77;;;;;;;;;;5010538;28;20259;-77
2024/01/23 10:32:46;;;;;;;17.67;5.73;;;;;;;;;;5006626;28;20296;-78
2024/01/23 10:35:12;;;;;;;20.67;6.10;;;;;;;;;;4998719;28;20629;-79
2024/01/23 10:37:41;;;;;;;17.23;5.37;;;;;;;;;;4974827;28;20314;-77
2024/01/23 10:40:11;;;;;;;16.03;5.07;;;;;;;;;;4988788;28;20641;-77
2024/01/23 10:42:39;;;;;;;20.30;6.37;;;;;;;;;;4970612;28;20223;-78
2024/01/23 10:45:10;;;;;;;23.60;6.77;;;;;;;;;;4978708;28;20228;-78
2024/01/23 10:47:35;;;;;;;16.50;5.57;;;;;;;;;;4980575;28;20235;-77
2024/01/23 10:50:03;;;;;;;28.33;6.60;;;;;;;;;;4995409;28;20244;-77
2024/01/23 10:52:30;;;;;;;15.87;6.03;;;;;;;;;;5009464;28;20754;-77
2024/01/23 10:54:58;;;;;;;26.13;6.17;;;;;;;;;;4993015;28;20232;-77
2024/01/23 10:57:24;;;;;;;17.93;5.47;;;;;;;;;;4981182;28;20311;-77
2024/01/23 10:59:50;;;;;;;16.73;5.83;;;;;;;;;;5018468;28;20303;-78
2024/01/23 11:02:30;;;;;;;23.10;5.90;;;;;;;;;;4994305;28;20947;-77
2024/01/23 11:04:58;;;;;;;16.53;5.93;;;;;;;;;;4996133;28;20241;-78
2024/01/23 11:07:25;;;;;;;23.40;6.67;;;;;;;;;;4988016;28;20217;-77
2024/01/23 11:09:59;;;;;;;21.83;7.00;;;;;;;;;;4982633;28;20575;-77
2024/01/23 11:12:45;;;;;;;21.13;6.73;;;;;;;;;;4993613;28;20232;-77
2024/01/23 11:15:14;;;;;;;22.10;5.97;;;;;;;;;;5013834;28;20227;-77
2024/01/23 11:17:44;;;;;;;20.97;6.17;;;;;;;;;;4995205;28;20224;-76
2024/01/23 11:20:15;;;;;;;22.87;6.10;;;;;;;;;;5000916;28;20239;-77
2024/01/23 11:22:44;;;;;;;19.33;6.07;;;;;;;;;;5016169;28;20227;-78
2024/01/23 11:25:13;;;;;;;21.27;5.77;;;;;;;;;;5007741;28;20227;-77
2024/01/23 11:27:43;;;;;;;19.73;5.47;;;;;;;;;;4989333;28;20216;-78
2024/01/23 11:30:13;;;;;;;20.33;5.33;;;;;;;;;;4998469;28;20220;-78
2024/01/23 11:32:41;;;;;;;25.93;5.83;;;;;;;;;;4985247;28;20228;-78
2024/01/23 11:35:11;;;;;;;22.23;6.30;;;;;;;;;;4989013;28;20291;-78
2024/01/23 11:37:54;;;;;;;21.97;6.47;;;;;;;;;;5017239;28;20687;-78
2024/01/23 11:40:34;;;;;;;15.67;5.03;;;;;;;;;;5032653;28;20244;-77
2024/01/23 11:43:07;;;;;;;17.60;5.03;;;;;;;;;;5009565;28;20753;-78
2024/01/23 11:45:35;;;;;;;15.97;5.33;;;;;;;;;;5004144;28;20689;-77
2024/01/23 11:48:04;;;;;;;29.37;5.83;;;;;;;;;;5009593;28;20282;-77
2024/01/23 11:50:34;;;;;;;17.00;5.17;;;;;;;;;;5009404;28;20685;-77
2024/01/23 11:53:00;;;;;;;19.27;5.47;;;;;;;;;;4988049;28;20244;-77
2024/01/23 11:55:28;;;;;;;16.83;5.13;;;;;;;;;;4993864;28;20223;-77
2024/01/23 11:57:57;;;;;;;15.13;4.63;;;;;;;;;;5014370;28;20222;-77
2024/01/23 12:00:23;;;;;;;18.70;5.17;;;;;;;;;;4988923;28;20356;-78
2024/01/23 12:02:49;;;;;;;19.93;6.13;;;;;;;;;;4977502;28;20709;-77
2024/01/23 12:05:14;;;;;;;15.47;5.83;;;;;;;;;;4993811;28;20263;-78
2024/01/23 12:07:42;;;;;;;18.40;6.13;;;;;;;;;;4976952;28;20415;-78
2024/01/23 12:10:09;;;;;;;12.97;4.97;;;;;;;;;;5005977;28;20953;-77
2024/01/23 12:12:35;;;;;;;25.67;5.93;;;;;;;;;;4999100;28;20224;-77
2024/01/23 12:15:04;;;;;;;23.40;6.13;;;;;;;;;;4984787;28;20224;-78
2024/01/23 12:17:33;;;;;;;17.27;5.50;;;;;;;;;;4979124;28;20678;-78
2024/01/23 12:20:05;;;;;;;21.00;5.20;;;;;;;;;;4991094;28;20223;-77
2024/01/23 12:22:30;;;;;;;14.97;5.37;;;;;;;;;;4980247;28;20312;-78
2024/01/23 12:24:58;;;;;;;21.07;6.50;;;;;;;;;;4996515;28;20228;-77
2024/01/23 12:27:29;;;;;;;23.10;8.20;;;;;;;;;;4987143;28;20742;-78
2024/01/23 12:29:54;;;;;;;24.47;6.43;;;;;;;;;;4993265;28;20220;-78
2024/01/23 12:32:20;;;;;;;24.40;7.03;;;;;;;;;;4975002;28;20240;-77
2024/01/23 12:34:48;;;;;;;17.43;6.23;;;;;;;;;;5000338;28;20220;-79
2024/01/23 12:37:14;;;;;;;18.10;5.60;;;;;;;;;;4993972;28;20252;-77
2024/01/23 12:39:41;;;;;;;17.50;5.93;;;;;;;;;;5007323;28;20217;-77
2024/01/23 12:42:07;;;;;;;18.87;6.30;;;;;;;;;;4972661;28;20231;-79
2024/01/23 12:44:35;;;;;;;15.47;5.73;;;;;;;;;;4997957;28;20225;-77
2024/01/23 12:47:05;;;;;;;19.20;5.00;;;;;;;;;;5004662;28;20299;-78
2024/01/23 12:49:35;;;;;;;19.40;6.30;;;;;;;;;;4996376;28;20232;-76
2024/01/23 12:52:03;;;;;;;21.80;6.10;;;;;;;;;;5003866;28;20224;-77
2024/01/23 12:54:31;;;;;;;17.27;6.30;;;;;;;;;;4995351;28;20796;-77
2024/01/23 12:56:56;;;;;;;24.07;7.10;;;;;;;;;;5003824;28;20219;-77
2024/01/23 12:59:26;;;;;;;19.83;7.27;;;;;;;;;;5002282;28;20220;-76
2024/01/23 13:01:54;;;;;;;24.30;6.77;;;;;;;;;;5009739;28;20709;-77
2024/01/23 13:04:19;;;;;;;17.73;9.93;;;;;;;;;;4990167;28;20215;-77
2024/01/23 13:06:47;;;;;;;20.37;6.37;;;;;;;;;;5019616;28;20220;-77
2024/01/23 13:09:15;;;;;;;26.33;7.17;;;;;;;;;;4985327;28;20217;-78
2024/01/23 13:11:43;;;;;;;18.83;6.57;;;;;;;;;;4987516;28;20225;-77
2024/01/23 13:14:08;;;;;;;22.70;6.33;;;;;;;;;;5010197;28;20216;-77
2024/01/23 13:16:34;;;;;;;22.20;6.67;;;;;;;;;;4991036;28;20223;-78
2024/01/23 13:18:59;;;;;;;16.07;5.43;;;;;;;;;;4971952;28;20741;-76
2024/01/23 13:21:25;;;;;;;17.90;5.93;;;;;;;;;;4995291;28;20223;-76
2024/01/23 13:23:50;;;;;;;23.10;6.17;;;;;;;;;;5019265;28;20208;-77
2024/01/23 13:26:16;;;;;;;13.87;5.30;;;;;;;;;;4997669;28;20231;-77
2024/01/23 13:28:41;;;;;;;17.27;5.93;;;;;;;;;;4996211;28;20257;-77
2024/01/23 13:31:12;;;;;;;22.83;7.80;;;;;;;;;;5000403;28;20682;-77
2024/01/23 13:33:40;;;;;;;15.97;5.70;;;;;;;;;;4998194;28;20330;-79
2024/01/23 13:36:07;;;;;;;16.40;5.33;;;;;;;;;;4991967;28;20235;-79
2024/01/23 13:38:37;;;;;;;18.83;5.30;;;;;;;;;;5016509;28;20227;-78
2024/01/23 13:41:06;;;;;;;15.50;6.17;;;;;;;;;;4987905;28;20286;-77
2024/01/23 13:43:31;;;;;;;21.93;5.37;;;;;;;;;;4977884;28;20239;-77
2024/01/23 13:45:57;;;;;;;21.70;5.80;;;;;;;;;;4968703;28;20708;-77
2024/01/23 13:48:25;;;;;;;15.30;4.90;;;;;;;;;;4975727;28;20222;-77
2024/01/23 13:50:51;;;;;;;15.27;5.33;;;;;;;;;;5006743;28;20262;-78
2024/01/23 13:53:21;;;;;;;22.27;5.37;;;;;;;;;;5000859;28;20232;-78
2024/01/23 13:55:47;;;;;;;21.57;6.27;;;;;;;;;;5005317;28;20231;-77
2024/01/23 13:58:13;;;;;;;16.33;5.77;;;;;;;;;;5002979;28;20578;-78
2024/01/23 14:00:38;;;;;;;18.37;6.13;;;;;;;;;;5001170;28;20660;-77
2024/01/23 14:03:09;;;;;;;19.77;6.03;;;;;;;;;;4989246;28;20221;-79
2024/01/23 14:05:38;;;;;;;17.17;4.87;;;;;;;;;;4990932;28;20227;-77
2024/01/23 14:08:04;;;;;;;11.30;4.67;;;;;;;;;;4981841;28;20236;-78
2024/01/23 14:10:29;;;;;;;18.67;5.33;;;;;;;;;;4950971;28;20286;-77
2024/01/23 14:12:55;;;;;;;17.53;5.47;;;;;;;;;;5019566;28;20692;-78
2024/01/23 14:15:21;;;;;;;11.53;5.10;;;;;;;;;;4991476;28;20743;-78
2024/01/23 14:17:48;;;;;;;19.27;5.83;;;;;;;;;;5018455;28;20230;-77
2024/01/23 14:20:16;;;;;;;17.87;5.40;;;;;;;;;;4991899;28;20224;-77
2024/01/23 14:22:43;;;;;;;16.43;5.70;;;;;;;;;;4989602;28;20230;-78
2024/01/23 14:25:12;;;;;;;20.73;5.30;;;;;;;;;;4985142;28;20720;-77
2024/01/23 14:27:40;;;;;;;17.97;5.47;;;;;;;;;;4978408;28;20219;-78
2024/01/23 14:30:09;;;;;;;19.27;5.37;;;;;;;;;;4966327;28;20217;-76
2024/01/23 14:32:35;;;;;;;17.53;5.23;;;;;;;;;;4987589;28;20288;-76
2024/01/23 14:35:04;;;;;;;17.73;5.30;;;;;;;;;;5003113;28;20229;-76